Fergus Falls, MN

4:42 PM CST on March 05, 2015 (GMT -0600)
Wall Lake | Change Station
CLOSE
Current Station
Personal Weather Station
Location: Fergus Falls, MN
Elevation: 1230 ft
Nearby Weather Stations

Elev 1230 ft 46.28 °N, 95.96 °W | Updated 8 minutes ago

Clear
Clear
15.3 °F
Feels Like 0 °F
N
14.5
Wind Variable Wind from SSW

Today
High -- | Low -- °F
--% Chance of Precip.
Yesterday
High -- | Low -- °F
Precip. -- in
6:56 AM 6:15 PM
Full, 100% visible
Pressure 30.29 in
Visibility 10.0 miles
Clouds Clear
Windchill 0 °F
Dew Point 9 °F
Humidity 76%
Rainfall in
Snow Depth Not available.
UV 1 out of 12
Pollen .10 out of 12
Air Quality Not available.
Flu Activity Not available.
METAR KFFM 052235Z AUTO 18014KT 10SM CLR M08/M15 A3029 RMK AO2

More Conditions Fewer Conditions

Pressure 30.29 in
Visibility 10.0 miles
Clouds Clear
Windchill 0 °F
Dew Point 9 °F
Humidity 76%
Rainfall in
Snow Depth Not available.
UV 1 out of 12
Pollen .10 out of 12
Air Quality Not available.
Flu Activity Not available.
METAR KFFM 052235Z AUTO 18014KT 10SM CLR M08/M15 A3029 RMK AO2

More Conditions Fewer Conditions

10-Day Weather Forecast

Almanac

Astronomy

Mar. 05, 2015 Rise Set
Actual Time
Civil Twilight
Nautical Twilight
Astronomical Twilight
Moon
Length of Visible Light
Length of Day
Tomorrow will be .
, % of the Moon is Illuminated

Today's Extremes

State Highs State Lows

Community

WunderPhotos

Upload Photos

1,803,036 photos uploaded!

WunderBlogs® & News

Nearby

Air Quality

  Air Quality AQ Index Pollutant
Not available.

Snow Depth

Station Depth Elevation

Earthquake Activity

City Distance Mag. Time & Date
Minimum magnitude displayed is 2.5.

Coastal Water Temperatures

Place Temperature

Nearby Weather Stations